sensor_id;sensor_type;location;lat;lon;timestamp;temperature;humidity
67529;DHT22;54366;51.980;5.856;2023-09-19T00:01:53;17.30;76.40
67529;DHT22;54366;51.980;5.856;2023-09-19T00:04:26;17.30;76.50
67529;DHT22;54366;51.980;5.856;2023-09-19T00:07:01;17.30;76.50
67529;DHT22;54366;51.980;5.856;2023-09-19T00:09:35;17.30;76.60
67529;DHT22;54366;51.980;5.856;2023-09-19T00:12:11;17.30;76.60
67529;DHT22;54366;51.980;5.856;2023-09-19T00:14:39;17.20;76.60
67529;DHT22;54366;51.980;5.856;2023-09-19T00:17:12;17.30;76.70
67529;DHT22;54366;51.980;5.856;2023-09-19T00:19:45;17.20;76.70
67529;DHT22;54366;51.980;5.856;2023-09-19T00:22:19;17.30;76.80
67529;DHT22;54366;51.980;5.856;2023-09-19T00:24:52;17.30;76.90
67529;DHT22;54366;51.980;5.856;2023-09-19T00:27:25;17.30;76.90
67529;DHT22;54366;51.980;5.856;2023-09-19T00:30:05;17.30;76.90
67529;DHT22;54366;51.980;5.856;2023-09-19T00:32:38;17.30;77.00
67529;DHT22;54366;51.980;5.856;2023-09-19T00:35:11;17.30;77.00
67529;DHT22;54366;51.980;5.856;2023-09-19T00:37:44;17.30;77.00
67529;DHT22;54366;51.980;5.856;2023-09-19T00:40:10;17.30;77.20
67529;DHT22;54366;51.980;5.856;2023-09-19T00:42:48;17.20;77.30
67529;DHT22;54366;51.980;5.856;2023-09-19T00:45:22;17.30;77.30
67529;DHT22;54366;51.980;5.856;2023-09-19T00:47:55;17.30;77.40
67529;DHT22;54366;51.980;5.856;2023-09-19T00:50:24;17.20;77.30
67529;DHT22;54366;51.980;5.856;2023-09-19T00:52:58;17.20;77.30
67529;DHT22;54366;51.980;5.856;2023-09-19T00:55:25;17.30;77.30
67529;DHT22;54366;51.980;5.856;2023-09-19T00:57:59;17.20;77.50
67529;DHT22;54366;51.980;5.856;2023-09-19T01:00:33;17.30;77.40
67529;DHT22;54366;51.980;5.856;2023-09-19T01:03:06;17.20;77.30
67529;DHT22;54366;51.980;5.856;2023-09-19T01:05:36;17.20;77.40
67529;DHT22;54366;51.980;5.856;2023-09-19T01:08:09;17.30;78.00
67529;DHT22;54366;51.980;5.856;2023-09-19T01:10:59;17.20;77.50
67529;DHT22;54366;51.980;5.856;2023-09-19T01:14:09;17.20;77.60
67529;DHT22;54366;51.980;5.856;2023-09-19T01:17:05;17.20;77.60
67529;DHT22;54366;51.980;5.856;2023-09-19T01:29:51;17.10;77.90
67529;DHT22;54366;51.980;5.856;2023-09-19T01:32:32;17.10;77.90
67529;DHT22;54366;51.980;5.856;2023-09-19T01:35:05;17.00;77.80
67529;DHT22;54366;51.980;5.856;2023-09-19T01:37:38;17.10;78.00
67529;DHT22;54366;51.980;5.856;2023-09-19T01:40:07;17.00;77.90
67529;DHT22;54366;51.980;5.856;2023-09-19T01:46:30;17.00;77.90
67529;DHT22;54366;51.980;5.856;2023-09-19T01:49:27;17.10;77.80
67529;DHT22;54366;51.980;5.856;2023-09-19T01:52:10;17.00;77.70
67529;DHT22;54366;51.980;5.856;2023-09-19T01:54:50;17.00;77.60
67529;DHT22;54366;51.980;5.856;2023-09-19T01:57:33;17.00;77.50
67529;DHT22;54366;51.980;5.856;2023-09-19T02:00:08;17.00;77.40
67529;DHT22;54366;51.980;5.856;2023-09-19T02:02:44;17.00;77.20
67529;DHT22;54366;51.980;5.856;2023-09-19T02:05:24;17.00;77.10
67529;DHT22;54366;51.980;5.856;2023-09-19T02:07:57;16.90;77.00
67529;DHT22;54366;51.980;5.856;2023-09-19T02:10:24;16.90;77.10
67529;DHT22;54366;51.980;5.856;2023-09-19T02:12:58;16.90;77.10
67529;DHT22;54366;51.980;5.856;2023-09-19T02:15:32;16.90;76.90
67529;DHT22;54366;51.980;5.856;2023-09-19T02:18:00;16.80;76.70
67529;DHT22;54366;51.980;5.856;2023-09-19T02:20:33;16.80;76.80
67529;DHT22;54366;51.980;5.856;2023-09-19T02:23:07;16.80;76.80
67529;DHT22;54366;51.980;5.856;2023-09-19T02:25:41;16.70;76.80
67529;DHT22;54366;51.980;5.856;2023-09-19T02:28:16;16.70;76.70
67529;DHT22;54366;51.980;5.856;2023-09-19T02:30:56;16.70;76.70
67529;DHT22;54366;51.980;5.856;2023-09-19T02:33:29;16.70;76.70
67529;DHT22;54366;51.980;5.856;2023-09-19T02:36:05;16.60;76.60
67529;DHT22;54366;51.980;5.856;2023-09-19T02:38:33;16.60;76.60
67529;DHT22;54366;51.980;5.856;2023-09-19T02:41:06;16.60;76.60
67529;DHT22;54366;51.980;5.856;2023-09-19T02:43:39;16.60;76.60
67529;DHT22;54366;51.980;5.856;2023-09-19T02:46:12;16.50;76.50
67529;DHT22;54366;51.980;5.856;2023-09-19T02:48:39;16.50;76.30
67529;DHT22;54366;51.980;5.856;2023-09-19T02:51:12;16.40;76.20
67529;DHT22;54366;51.980;5.856;2023-09-19T02:53:39;16.40;76.10
67529;DHT22;54366;51.980;5.856;2023-09-19T02:56:12;16.40;76.10
67529;DHT22;54366;51.980;5.856;2023-09-19T02:58:46;16.40;76.10
67529;DHT22;54366;51.980;5.856;2023-09-19T03:01:32;16.30;76.00
67529;DHT22;54366;51.980;5.856;2023-09-19T03:04:06;16.40;76.10
67529;DHT22;54366;51.980;5.856;2023-09-19T03:06:33;16.30;75.90
67529;DHT22;54366;51.980;5.856;2023-09-19T03:09:06;16.30;75.80
67529;DHT22;54366;51.980;5.856;2023-09-19T03:11:44;16.30;76.00
67529;DHT22;54366;51.980;5.856;2023-09-19T03:14:20;16.20;75.90
67529;DHT22;54366;51.980;5.856;2023-09-19T03:16:53;16.20;75.90
67529;DHT22;54366;51.980;5.856;2023-09-19T03:19:26;16.20;75.70
67529;DHT22;54366;51.980;5.856;2023-09-19T03:21:59;16.20;75.60
67529;DHT22;54366;51.980;5.856;2023-09-19T03:24:32;16.10;75.70
67529;DHT22;54366;51.980;5.856;2023-09-19T03:27:02;16.10;75.80
67529;DHT22;54366;51.980;5.856;2023-09-19T03:29:35;16.10;75.80
67529;DHT22;54366;51.980;5.856;2023-09-19T03:32:15;16.10;75.80
67529;DHT22;54366;51.980;5.856;2023-09-19T03:34:49;16.00;75.70
67529;DHT22;54366;51.980;5.856;2023-09-19T03:37:22;16.00;75.70
67529;DHT22;54366;51.980;5.856;2023-09-19T03:39:50;16.00;75.60
67529;DHT22;54366;51.980;5.856;2023-09-19T03:42:23;15.90;75.60
67529;DHT22;54366;51.980;5.856;2023-09-19T03:45:00;15.90;75.60
67529;DHT22;54366;51.980;5.856;2023-09-19T03:47:33;15.90;75.30
67529;DHT22;54366;51.980;5.856;2023-09-19T03:50:07;15.80;75.40
67529;DHT22;54366;51.980;5.856;2023-09-19T03:52:41;15.80;75.30
67529;DHT22;54366;51.980;5.856;2023-09-19T03:55:15;15.80;74.90
67529;DHT22;54366;51.980;5.856;2023-09-19T03:57:48;15.80;74.90
67529;DHT22;54366;51.980;5.856;2023-09-19T04:00:22;15.80;74.90
67529;DHT22;54366;51.980;5.856;2023-09-19T04:02:59;15.70;74.80
67529;DHT22;54366;51.980;5.856;2023-09-19T04:05:33;15.70;74.40
67529;DHT22;54366;51.980;5.856;2023-09-19T04:08:06;15.70;74.40
67529;DHT22;54366;51.980;5.856;2023-09-19T04:10:43;15.70;74.60
67529;DHT22;54366;51.980;5.856;2023-09-19T04:13:17;15.70;74.80
67529;DHT22;54366;51.980;5.856;2023-09-19T04:15:50;15.60;74.70
67529;DHT22;54366;51.980;5.856;2023-09-19T04:18:16;15.60;74.80
67529;DHT22;54366;51.980;5.856;2023-09-19T04:20:50;15.60;74.70
67529;DHT22;54366;51.980;5.856;2023-09-19T04:23:23;15.60;74.50
67529;DHT22;54366;51.980;5.856;2023-09-19T04:25:56;15.60;74.60
67529;DHT22;54366;51.980;5.856;2023-09-19T04:28:23;15.60;74.70
67529;DHT22;54366;51.980;5.856;2023-09-19T04:31:02;15.60;74.60
67529;DHT22;54366;51.980;5.856;2023-09-19T04:33:35;15.50;74.60
67529;DHT22;54366;51.980;5.856;2023-09-19T04:36:02;15.50;74.40
67529;DHT22;54366;51.980;5.856;2023-09-19T04:38:36;15.50;74.50
67529;DHT22;54366;51.980;5.856;2023-09-19T04:41:09;15.50;74.60
67529;DHT22;54366;51.980;5.856;2023-09-19T04:43:35;15.50;74.20
67529;DHT22;54366;51.980;5.856;2023-09-19T04:46:08;15.50;74.30
67529;DHT22;54366;51.980;5.856;2023-09-19T04:48:41;15.50;74.40
67529;DHT22;54366;51.980;5.856;2023-09-19T04:51:14;15.50;74.50
67529;DHT22;54366;51.980;5.856;2023-09-19T04:53:41;15.50;74.30
67529;DHT22;54366;51.980;5.856;2023-09-19T04:56:14;15.50;74.40
67529;DHT22;54366;51.980;5.856;2023-09-19T04:58:47;15.50;74.20
67529;DHT22;54366;51.980;5.856;2023-09-19T05:03:55;15.40;74.00
67529;DHT22;54366;51.980;5.856;2023-09-19T05:06:28;15.40;73.90
67529;DHT22;54366;51.980;5.856;2023-09-19T05:09:01;15.40;74.00
67529;DHT22;54366;51.980;5.856;2023-09-19T05:11:34;15.40;74.20
67529;DHT22;54366;51.980;5.856;2023-09-19T05:14:00;15.40;74.30
67529;DHT22;54366;51.980;5.856;2023-09-19T05:16:36;15.40;74.40
67529;DHT22;54366;51.980;5.856;2023-09-19T05:19:09;15.30;74.30
67529;DHT22;54366;51.980;5.856;2023-09-19T05:21:37;15.30;74.40
67529;DHT22;54366;51.980;5.856;2023-09-19T05:24:11;15.30;74.40
67529;DHT22;54366;51.980;5.856;2023-09-19T05:26:45;15.40;74.40
67529;DHT22;54366;51.980;5.856;2023-09-19T05:29:18;15.40;74.40
67529;DHT22;54366;51.980;5.856;2023-09-19T05:32:05;15.40;74.40
67529;DHT22;54366;51.980;5.856;2023-09-19T05:34:38;15.40;74.40
67529;DHT22;54366;51.980;5.856;2023-09-19T05:37:05;15.40;74.40
67529;DHT22;54366;51.980;5.856;2023-09-19T05:39:41;15.40;74.40
67529;DHT22;54366;51.980;5.856;2023-09-19T05:42:14;15.40;74.40
67529;DHT22;54366;51.980;5.856;2023-09-19T05:44:47;15.40;74.40
67529;DHT22;54366;51.980;5.856;2023-09-19T05:47:20;15.40;74.50
67529;DHT22;54366;51.980;5.856;2023-09-19T05:49:55;15.40;74.50
67529;DHT22;54366;51.980;5.856;2023-09-19T05:52:21;15.50;74.40
67529;DHT22;54366;51.980;5.856;2023-09-19T05:54:55;15.50;74.40
67529;DHT22;54366;51.980;5.856;2023-09-19T05:57:29;15.50;74.40
67529;DHT22;54366;51.980;5.856;2023-09-19T06:00:03;15.50;74.50
67529;DHT22;54366;51.980;5.856;2023-09-19T06:02:41;15.50;74.50
67529;DHT22;54366;51.980;5.856;2023-09-19T06:05:07;15.50;74.60
67529;DHT22;54366;51.980;5.856;2023-09-19T06:07:43;15.50;74.60
67529;DHT22;54366;51.980;5.856;2023-09-19T06:10:16;15.60;74.70
67529;DHT22;54366;51.980;5.856;2023-09-19T06:12:50;15.60;74.80
67529;DHT22;54366;51.980;5.856;2023-09-19T06:15:23;15.50;74.80
67529;DHT22;54366;51.980;5.856;2023-09-19T06:17:52;15.60;74.80
67529;DHT22;54366;51.980;5.856;2023-09-19T06:20:27;15.60;74.80
67529;DHT22;54366;51.980;5.856;2023-09-19T06:23:00;15.60;74.80
67529;DHT22;54366;51.980;5.856;2023-09-19T06:25:34;15.60;74.90
67529;DHT22;54366;51.980;5.856;2023-09-19T06:28:07;15.70;74.90
67529;DHT22;54366;51.980;5.856;2023-09-19T06:30:41;15.60;75.50
67529;DHT22;54366;51.980;5.856;2023-09-19T06:33:27;15.70;75.20
67529;DHT22;54366;51.980;5.856;2023-09-19T06:36:02;15.70;75.30
67529;DHT22;54366;51.980;5.856;2023-09-19T06:38:36;15.70;75.20
67529;DHT22;54366;51.980;5.856;2023-09-19T06:41:03;15.80;75.40
67529;DHT22;54366;51.980;5.856;2023-09-19T06:43:41;15.80;75.40
67529;DHT22;54366;51.980;5.856;2023-09-19T06:46:14;15.90;75.40
67529;DHT22;54366;51.980;5.856;2023-09-19T06:48:48;15.90;75.40
67529;DHT22;54366;51.980;5.856;2023-09-19T06:51:22;15.90;75.30
67529;DHT22;54366;51.980;5.856;2023-09-19T06:53:55;16.00;75.40
67529;DHT22;54366;51.980;5.856;2023-09-19T06:56:29;16.00;75.50
67529;DHT22;54366;51.980;5.856;2023-09-19T06:59:02;16.00;75.50
67529;DHT22;54366;51.980;5.856;2023-09-19T07:01:35;16.00;75.60
67529;DHT22;54366;51.980;5.856;2023-09-19T07:04:04;16.10;75.60
67529;DHT22;54366;51.980;5.856;2023-09-19T07:06:38;16.10;75.60
67529;DHT22;54366;51.980;5.856;2023-09-19T07:09:12;16.20;75.80
67529;DHT22;54366;51.980;5.856;2023-09-19T07:11:45;16.20;75.60
67529;DHT22;54366;51.980;5.856;2023-09-19T07:14:18;16.20;75.70
67529;DHT22;54366;51.980;5.856;2023-09-19T07:16:51;16.20;75.80
67529;DHT22;54366;51.980;5.856;2023-09-19T07:19:24;16.20;75.80
67529;DHT22;54366;51.980;5.856;2023-09-19T07:21:50;16.30;75.80
67529;DHT22;54366;51.980;5.856;2023-09-19T07:24:23;16.30;75.80
67529;DHT22;54366;51.980;5.856;2023-09-19T07:26:56;16.40;75.70
67529;DHT22;54366;51.980;5.856;2023-09-19T07:29:29;16.40;75.70
67529;DHT22;54366;51.980;5.856;2023-09-19T07:32:10;16.50;75.60
67529;DHT22;54366;51.980;5.856;2023-09-19T07:34:37;16.50;75.60
67529;DHT22;54366;51.980;5.856;2023-09-19T07:37:13;16.60;75.60
67529;DHT22;54366;51.980;5.856;2023-09-19T07:39:48;16.60;75.40
67529;DHT22;54366;51.980;5.856;2023-09-19T07:42:14;16.70;75.50
67529;DHT22;54366;51.980;5.856;2023-09-19T07:44:50;16.70;75.50
67529;DHT22;54366;51.980;5.856;2023-09-19T07:47:17;16.80;75.50
67529;DHT22;54366;51.980;5.856;2023-09-19T07:49:49;16.80;75.40
67529;DHT22;54366;51.980;5.856;2023-09-19T07:52:15;16.90;75.50
67529;DHT22;54366;51.980;5.856;2023-09-19T07:54:48;16.90;75.00
67529;DHT22;54366;51.980;5.856;2023-09-19T07:57:22;17.00;74.90
67529;DHT22;54366;51.980;5.856;2023-09-19T07:59:55;17.00;75.10
67529;DHT22;54366;51.980;5.856;2023-09-19T08:02:38;17.10;75.00
67529;DHT22;54366;51.980;5.856;2023-09-19T08:05:12;17.10;74.80
67529;DHT22;54366;51.980;5.856;2023-09-19T08:07:48;17.20;74.70
67529;DHT22;54366;51.980;5.856;2023-09-19T08:10:15;17.30;74.80
67529;DHT22;54366;51.980;5.856;2023-09-19T08:12:49;17.30;74.50
67529;DHT22;54366;51.980;5.856;2023-09-19T08:15:28;17.30;74.60
67529;DHT22;54366;51.980;5.856;2023-09-19T08:20:34;17.40;74.30
67529;DHT22;54366;51.980;5.856;2023-09-19T08:23:00;17.50;74.20
67529;DHT22;54366;51.980;5.856;2023-09-19T08:25:33;17.50;74.20
67529;DHT22;54366;51.980;5.856;2023-09-19T08:28:06;17.60;74.20
67529;DHT22;54366;51.980;5.856;2023-09-19T08:30:47;17.60;74.00
67529;DHT22;54366;51.980;5.856;2023-09-19T08:33:20;17.70;73.50
67529;DHT22;54366;51.980;5.856;2023-09-19T08:35:55;17.70;73.50
67529;DHT22;54366;51.980;5.856;2023-09-19T08:38:22;17.80;73.40
67529;DHT22;54366;51.980;5.856;2023-09-19T08:41:04;17.90;73.50
67529;DHT22;54366;51.980;5.856;2023-09-19T08:43:38;17.90;73.40
67529;DHT22;54366;51.980;5.856;2023-09-19T08:46:15;18.00;73.50
67529;DHT22;54366;51.980;5.856;2023-09-19T08:49:01;18.10;73.40
67529;DHT22;54366;51.980;5.856;2023-09-19T08:51:43;18.20;73.30
67529;DHT22;54366;51.980;5.856;2023-09-19T08:54:29;18.30;73.70
67529;DHT22;54366;51.980;5.856;2023-09-19T08:57:07;18.40;73.00
67529;DHT22;54366;51.980;5.856;2023-09-19T08:59:51;18.40;72.80
67529;DHT22;54366;51.980;5.856;2023-09-19T09:02:18;18.50;72.40
67529;DHT22;54366;51.980;5.856;2023-09-19T09:04:53;18.50;72.50
67529;DHT22;54366;51.980;5.856;2023-09-19T09:07:27;18.60;72.20
67529;DHT22;54366;51.980;5.856;2023-09-19T09:10:03;18.70;72.40
67529;DHT22;54366;51.980;5.856;2023-09-19T09:12:30;18.80;71.70
67529;DHT22;54366;51.980;5.856;2023-09-19T09:15:04;18.90;71.20
67529;DHT22;54366;51.980;5.856;2023-09-19T09:17:37;18.90;71.00
67529;DHT22;54366;51.980;5.856;2023-09-19T09:20:10;18.90;70.70
67529;DHT22;54366;51.980;5.856;2023-09-19T09:22:56;19.00;70.70
67529;DHT22;54366;51.980;5.856;2023-09-19T09:25:53;19.10;70.60
67529;DHT22;54366;51.980;5.856;2023-09-19T09:28:30;19.30;70.20
67529;DHT22;54366;51.980;5.856;2023-09-19T09:31:03;19.40;69.30
67529;DHT22;54366;51.980;5.856;2023-09-19T09:33:55;19.40;69.70
67529;DHT22;54366;51.980;5.856;2023-09-19T09:36:40;19.40;69.90
67529;DHT22;54366;51.980;5.856;2023-09-19T09:39:30;19.50;69.20
67529;DHT22;54366;51.980;5.856;2023-09-19T09:42:04;19.50;69.00
67529;DHT22;54366;51.980;5.856;2023-09-19T09:44:32;19.60;69.10
67529;DHT22;54366;51.980;5.856;2023-09-19T09:47:05;19.80;67.30
67529;DHT22;54366;51.980;5.856;2023-09-19T09:49:56;19.90;67.50
67529;DHT22;54366;51.980;5.856;2023-09-19T09:52:45;20.10;67.50
67529;DHT22;54366;51.980;5.856;2023-09-19T09:55:19;20.30;67.10
67529;DHT22;54366;51.980;5.856;2023-09-19T09:58:16;20.30;63.90
67529;DHT22;54366;51.980;5.856;2023-09-19T10:00:56;20.40;64.00
67529;DHT22;54366;51.980;5.856;2023-09-19T10:03:35;20.40;64.70
67529;DHT22;54366;51.980;5.856;2023-09-19T10:06:13;20.60;64.10
67529;DHT22;54366;51.980;5.856;2023-09-19T10:09:09;20.60;64.00
67529;DHT22;54366;51.980;5.856;2023-09-19T10:12:00;20.60;63.90
67529;DHT22;54366;51.980;5.856;2023-09-19T10:14:37;20.80;64.10
67529;DHT22;54366;51.980;5.856;2023-09-19T10:17:10;20.90;64.50
67529;DHT22;54366;51.980;5.856;2023-09-19T10:19:50;21.10;64.80
67529;DHT22;54366;51.980;5.856;2023-09-19T10:22:26;21.20;63.60
67529;DHT22;54366;51.980;5.856;2023-09-19T10:24:56;21.30;62.80
67529;DHT22;54366;51.980;5.856;2023-09-19T10:27:30;21.30;61.50
67529;DHT22;54366;51.980;5.856;2023-09-19T10:30:11;21.40;61.80
67529;DHT22;54366;51.980;5.856;2023-09-19T10:33:01;21.50;62.40
67529;DHT22;54366;51.980;5.856;2023-09-19T10:35:44;21.50;61.50
67529;DHT22;54366;51.980;5.856;2023-09-19T10:38:23;21.50;61.00
67529;DHT22;54366;51.980;5.856;2023-09-19T10:40:57;21.60;61.40
67529;DHT22;54366;51.980;5.856;2023-09-19T10:43:33;21.70;61.50
67529;DHT22;54366;51.980;5.856;2023-09-19T10:46:07;21.70;61.10
67529;DHT22;54366;51.980;5.856;2023-09-19T10:48:43;21.80;61.30
67529;DHT22;54366;51.980;5.856;2023-09-19T10:51:20;21.80;60.90
67529;DHT22;54366;51.980;5.856;2023-09-19T10:54:05;21.80;60.40
67529;DHT22;54366;51.980;5.856;2023-09-19T10:56:46;21.70;60.10
67529;DHT22;54366;51.980;5.856;2023-09-19T10:59:22;21.60;60.20
67529;DHT22;54366;51.980;5.856;2023-09-19T11:01:51;21.50;60.70
67529;DHT22;54366;51.980;5.856;2023-09-19T11:04:35;21.50;61.00
67529;DHT22;54366;51.980;5.856;2023-09-19T11:07:10;21.50;61.70
67529;DHT22;54366;51.980;5.856;2023-09-19T11:09:53;21.40;61.50
67529;DHT22;54366;51.980;5.856;2023-09-19T11:12:51;21.20;61.00
67529;DHT22;54366;51.980;5.856;2023-09-19T11:18:52;21.00;61.70
67529;DHT22;54366;51.980;5.856;2023-09-19T11:24:28;21.20;62.60
67529;DHT22;54366;51.980;5.856;2023-09-19T11:27:14;21.30;61.90
67529;DHT22;54366;51.980;5.856;2023-09-19T11:29:47;21.20;61.90
67529;DHT22;54366;51.980;5.856;2023-09-19T11:36:14;21.10;61.80
67529;DHT22;54366;51.980;5.856;2023-09-19T11:38:59;21.00;61.50
67529;DHT22;54366;51.980;5.856;2023-09-19T11:41:40;20.90;61.60
67529;DHT22;54366;51.980;5.856;2023-09-19T11:44:33;20.90;61.50
67529;DHT22;54366;51.980;5.856;2023-09-19T11:47:08;20.90;62.20
67529;DHT22;54366;51.980;5.856;2023-09-19T11:49:44;21.00;62.60
67529;DHT22;54366;51.980;5.856;2023-09-19T11:52:12;21.00;61.70
67529;DHT22;54366;51.980;5.856;2023-09-19T11:55:00;21.20;60.70
67529;DHT22;54366;51.980;5.856;2023-09-19T11:57:34;21.30;60.80
67529;DHT22;54366;51.980;5.856;2023-09-19T12:00:10;21.40;61.10
67529;DHT22;54366;51.980;5.856;2023-09-19T12:02:50;21.50;61.50
67529;DHT22;54366;51.980;5.856;2023-09-19T12:05:30;21.60;61.50
67529;DHT22;54366;51.980;5.856;2023-09-19T12:08:07;21.70;61.10
67529;DHT22;54366;51.980;5.856;2023-09-19T12:10:51;21.80;60.90
67529;DHT22;54366;51.980;5.856;2023-09-19T12:13:24;21.90;59.30
67529;DHT22;54366;51.980;5.856;2023-09-19T12:15:58;22.00;58.40
67529;DHT22;54366;51.980;5.856;2023-09-19T12:18:33;21.90;58.40
67529;DHT22;54366;51.980;5.856;2023-09-19T12:21:10;22.00;58.40
67529;DHT22;54366;51.980;5.856;2023-09-19T12:24:07;22.00;58.90
67529;DHT22;54366;51.980;5.856;2023-09-19T12:26:46;22.30;58.80
67529;DHT22;54366;51.980;5.856;2023-09-19T12:29:24;22.40;58.80
67529;DHT22;54366;51.980;5.856;2023-09-19T12:31:58;22.60;58.10
67529;DHT22;54366;51.980;5.856;2023-09-19T12:34:38;22.70;58.00
67529;DHT22;54366;51.980;5.856;2023-09-19T12:37:17;22.70;56.50
67529;DHT22;54366;51.980;5.856;2023-09-19T12:40:05;22.50;57.00
67529;DHT22;54366;51.980;5.856;2023-09-19T12:42:50;22.40;55.50
67529;DHT22;54366;51.980;5.856;2023-09-19T12:45:16;22.20;56.50
67529;DHT22;54366;51.980;5.856;2023-09-19T12:51:04;21.80;56.80
67529;DHT22;54366;51.980;5.856;2023-09-19T12:53:46;21.70;57.60
67529;DHT22;54366;51.980;5.856;2023-09-19T12:56:21;21.60;58.40
67529;DHT22;54366;51.980;5.856;2023-09-19T12:58:57;21.40;58.50
67529;DHT22;54366;51.980;5.856;2023-09-19T13:01:43;21.40;58.80
67529;DHT22;54366;51.980;5.856;2023-09-19T13:04:20;21.30;58.70
67529;DHT22;54366;51.980;5.856;2023-09-19T13:06:58;21.20;58.80
67529;DHT22;54366;51.980;5.856;2023-09-19T13:09:27;21.20;58.90
67529;DHT22;54366;51.980;5.856;2023-09-19T13:12:37;21.10;59.20
67529;DHT22;54366;51.980;5.856;2023-09-19T13:15:12;21.10;59.50
67529;DHT22;54366;51.980;5.856;2023-09-19T13:17:56;21.00;59.80
67529;DHT22;54366;51.980;5.856;2023-09-19T13:20:26;21.00;60.30
67529;DHT22;54366;51.980;5.856;2023-09-19T13:23:04;21.10;60.40
67529;DHT22;54366;51.980;5.856;2023-09-19T13:25:42;21.10;60.60
67529;DHT22;54366;51.980;5.856;2023-09-19T13:28:15;21.10;60.50
67529;DHT22;54366;51.980;5.856;2023-09-19T13:30:47;21.00;60.40
67529;DHT22;54366;51.980;5.856;2023-09-19T13:33:27;21.00;60.50
67529;DHT22;54366;51.980;5.856;2023-09-19T13:36:00;21.00;60.00
67529;DHT22;54366;51.980;5.856;2023-09-19T13:38:26;20.90;60.30
67529;DHT22;54366;51.980;5.856;2023-09-19T13:40:59;20.90;60.90
67529;DHT22;54366;51.980;5.856;2023-09-19T13:43:33;20.80;60.90
67529;DHT22;54366;51.980;5.856;2023-09-19T13:46:06;20.90;61.10
67529;DHT22;54366;51.980;5.856;2023-09-19T13:48:47;20.80;61.20
67529;DHT22;54366;51.980;5.856;2023-09-19T13:51:16;20.80;61.40
67529;DHT22;54366;51.980;5.856;2023-09-19T13:53:49;20.80;61.20
67529;DHT22;54366;51.980;5.856;2023-09-19T13:56:23;20.80;61.40
67529;DHT22;54366;51.980;5.856;2023-09-19T13:58:57;20.70;60.70
67529;DHT22;54366;51.980;5.856;2023-09-19T14:01:30;20.80;60.90
67529;DHT22;54366;51.980;5.856;2023-09-19T14:04:03;20.80;60.70
67529;DHT22;54366;51.980;5.856;2023-09-19T14:06:30;20.80;60.60
67529;DHT22;54366;51.980;5.856;2023-09-19T14:09:02;20.90;60.80
67529;DHT22;54366;51.980;5.856;2023-09-19T14:11:36;21.00;61.20
67529;DHT22;54366;51.980;5.856;2023-09-19T14:14:09;21.10;61.20
67529;DHT22;54366;51.980;5.856;2023-09-19T14:16:35;21.20;60.80
67529;DHT22;54366;51.980;5.856;2023-09-19T14:19:09;21.20;61.10
67529;DHT22;54366;51.980;5.856;2023-09-19T14:21:42;21.30;61.00
67529;DHT22;54366;51.980;5.856;2023-09-19T14:24:17;21.30;60.60
67529;DHT22;54366;51.980;5.856;2023-09-19T14:26:50;21.30;60.30
67529;DHT22;54366;51.980;5.856;2023-09-19T14:29:23;21.30;60.30
67529;DHT22;54366;51.980;5.856;2023-09-19T14:31:56;21.30;60.40
67529;DHT22;54366;51.980;5.856;2023-09-19T14:34:30;21.30;59.80
67529;DHT22;54366;51.980;5.856;2023-09-19T14:37:03;21.20;60.00
67529;DHT22;54366;51.980;5.856;2023-09-19T14:39:36;21.20;60.40
67529;DHT22;54366;51.980;5.856;2023-09-19T14:42:11;21.10;60.70
67529;DHT22;54366;51.980;5.856;2023-09-19T14:44:45;21.10;61.00
67529;DHT22;54366;51.980;5.856;2023-09-19T14:47:13;21.10;61.20
67529;DHT22;54366;51.980;5.856;2023-09-19T14:49:46;21.10;60.70
67529;DHT22;54366;51.980;5.856;2023-09-19T14:52:19;21.00;60.80
67529;DHT22;54366;51.980;5.856;2023-09-19T14:54:52;21.00;60.70
67529;DHT22;54366;51.980;5.856;2023-09-19T14:57:19;20.90;60.80
67529;DHT22;54366;51.980;5.856;2023-09-19T14:59:52;20.90;60.70
67529;DHT22;54366;51.980;5.856;2023-09-19T15:02:25;20.90;60.80
67529;DHT22;54366;51.980;5.856;2023-09-19T15:04:58;20.80;60.90
67529;DHT22;54366;51.980;5.856;2023-09-19T15:07:31;20.80;61.20
67529;DHT22;54366;51.980;5.856;2023-09-19T15:10:05;20.70;60.90
67529;DHT22;54366;51.980;5.856;2023-09-19T15:12:42;20.70;61.20
67529;DHT22;54366;51.980;5.856;2023-09-19T15:15:15;20.70;61.00
67529;DHT22;54366;51.980;5.856;2023-09-19T15:17:48;20.70;61.50
67529;DHT22;54366;51.980;5.856;2023-09-19T15:20:21;20.60;61.40
67529;DHT22;54366;51.980;5.856;2023-09-19T15:22:47;20.70;61.70
67529;DHT22;54366;51.980;5.856;2023-09-19T15:25:20;20.60;61.80
67529;DHT22;54366;51.980;5.856;2023-09-19T15:27:46;20.60;61.90
67529;DHT22;54366;51.980;5.856;2023-09-19T15:30:19;20.60;62.10
67529;DHT22;54366;51.980;5.856;2023-09-19T15:32:58;20.60;62.30
67529;DHT22;54366;51.980;5.856;2023-09-19T15:35:32;20.50;62.30
67529;DHT22;54366;51.980;5.856;2023-09-19T15:38:05;20.50;62.30
67529;DHT22;54366;51.980;5.856;2023-09-19T15:40:46;20.50;62.50
67529;DHT22;54366;51.980;5.856;2023-09-19T15:43:19;20.50;62.70
67529;DHT22;54366;51.980;5.856;2023-09-19T15:45:53;20.50;62.70
67529;DHT22;54366;51.980;5.856;2023-09-19T15:48:19;20.50;62.90
67529;DHT22;54366;51.980;5.856;2023-09-19T15:50:54;20.40;62.70
67529;DHT22;54366;51.980;5.856;2023-09-19T15:53:21;20.40;62.80
67529;DHT22;54366;51.980;5.856;2023-09-19T15:55:53;20.40;62.90
67529;DHT22;54366;51.980;5.856;2023-09-19T15:58:19;20.40;63.00
67529;DHT22;54366;51.980;5.856;2023-09-19T16:00:52;20.40;63.10
67529;DHT22;54366;51.980;5.856;2023-09-19T16:03:25;20.30;63.10
67529;DHT22;54366;51.980;5.856;2023-09-19T16:05:59;20.30;63.10
67529;DHT22;54366;51.980;5.856;2023-09-19T16:08:32;20.40;63.20
67529;DHT22;54366;51.980;5.856;2023-09-19T16:11:06;20.40;63.20
67529;DHT22;54366;51.980;5.856;2023-09-19T16:13:40;20.30;63.40
67529;DHT22;54366;51.980;5.856;2023-09-19T16:16:13;20.40;63.40
67529;DHT22;54366;51.980;5.856;2023-09-19T16:18:50;20.30;63.40
67529;DHT22;54366;51.980;5.856;2023-09-19T16:21:17;20.40;63.60
67529;DHT22;54366;51.980;5.856;2023-09-19T16:23:52;20.30;63.60
67529;DHT22;54366;51.980;5.856;2023-09-19T16:26:22;20.30;63.80
67529;DHT22;54366;51.980;5.856;2023-09-19T16:28:57;20.30;63.70
67529;DHT22;54366;51.980;5.856;2023-09-19T16:31:33;20.30;63.60
67529;DHT22;54366;51.980;5.856;2023-09-19T16:34:20;20.30;63.80
67529;DHT22;54366;51.980;5.856;2023-09-19T16:36:52;20.30;63.80
67529;DHT22;54366;51.980;5.856;2023-09-19T16:39:18;20.20;64.00
67529;DHT22;54366;51.980;5.856;2023-09-19T16:41:51;20.20;64.20
67529;DHT22;54366;51.980;5.856;2023-09-19T16:44:24;20.20;64.20
67529;DHT22;54366;51.980;5.856;2023-09-19T16:46:57;20.20;64.30
67529;DHT22;54366;51.980;5.856;2023-09-19T16:49:30;20.10;64.20
67529;DHT22;54366;51.980;5.856;2023-09-19T16:52:03;20.10;64.20